Terminal Aerodrome Forecast
Issued by NWS

Home | Current Version | Previous Version | Text Only | Print | Product List | Glossary Off
Versions: 1 2 3 4 5 6 7 8 9 10 11 12 13 14 15 16 17 18 19 20 21 22 23

389
FTUS41 KCLE 261140
TAFFDY
TAF
KFDY 261140Z 2612/2712 28008KT 2SM BR OVC005
      TEMPO 2612/2614 4SM BR SCT005 OVC015
     FM261400 28008KT P6SM OVC015
      TEMPO 2614/2615 BKN005
     FM261600 28006KT P6SM BKN035
     FM270200 VRB05KT 6SM -SHRA OVC030
      TEMPO 2703/2707 3SM SHRA OVC015
     FM270700 15010KT 5SM BR OVC015=

USA.gov is the U.S. government's official web portal to all federal, state and local government web resources and services.